createdAt,value
2019-05-20T00:04:07.348Z,255.40
2019-05-20T00:08:19.515Z,252.73
2019-05-20T00:12:29.806Z,260.07
2019-05-20T00:16:40.114Z,262.93
2019-05-20T00:20:51.936Z,257.10
2019-05-20T00:25:02.154Z,252.73
2019-05-20T00:29:12.829Z,252.07
2019-05-20T00:33:23.321Z,255.20
2019-05-20T00:37:33.616Z,249.90
2019-05-20T00:41:45.241Z,253.57
2019-05-20T00:45:55.638Z,256.20
2019-05-20T00:50:06.404Z,256.10
2019-05-20T00:54:17.104Z,273.40
2019-05-20T00:58:27.596Z,262.20
2019-05-20T01:02:37.889Z,252.05
2019-05-20T01:06:48.189Z,253.50
2019-05-20T01:10:58.543Z,255.85
2019-05-20T01:15:10.994Z,255.73
2019-05-20T01:19:21.227Z,252.60
2019-05-20T01:23:31.696Z,258.90
2019-05-20T01:27:42.003Z,253.83
2019-05-20T01:31:52.325Z,255.45
2019-05-20T01:36:02.545Z,250.37
2019-05-20T01:40:13.213Z,262.43
2019-05-20T01:44:23.471Z,270.17
2019-05-20T01:48:33.803Z,259.97
2019-05-20T01:52:44.047Z,267.97
2019-05-20T01:56:54.397Z,256.50
2019-05-20T02:01:04.697Z,257.47
2019-05-20T02:05:15.063Z,260.50
2019-05-20T02:09:25.401Z,258.90
2019-05-20T02:13:37.408Z,269.13
2019-05-20T02:17:47.848Z,268.63
2019-05-20T02:21:58.149Z,264.07
2019-05-20T02:26:09.111Z,263.07
2019-05-20T02:30:19.439Z,272.10
2019-05-20T02:34:29.798Z,261.17
2019-05-20T02:38:41.201Z,266.50
2019-05-20T02:42:53.284Z,265.20
2019-05-20T02:47:03.697Z,264.20
2019-05-20T02:51:14.030Z,266.13
2019-05-20T02:55:24.350Z,265.17
2019-05-20T02:59:34.665Z,257.10
2019-05-20T03:03:45.007Z,256.27
2019-05-20T03:07:55.249Z,256.47
2019-05-20T03:12:05.614Z,258.20
2019-05-20T03:16:16.110Z,261.97
2019-05-20T03:20:26.448Z,266.43
2019-05-20T03:24:37.948Z,259.47
2019-05-20T03:28:48.946Z,253.50
2019-05-20T03:33:00.063Z,265.53
2019-05-20T03:37:10.385Z,267.07
2019-05-20T03:41:21.465Z,262.47
2019-05-20T03:45:32.365Z,270.17
2019-05-20T03:49:42.636Z,267.67
2019-05-20T03:53:52.844Z,266.60
2019-05-20T03:58:03.262Z,263.37
2019-05-20T04:02:14.303Z,257.47
2019-05-20T04:06:26.414Z,262.80
2019-05-20T04:10:36.737Z,264.42
2019-05-20T04:14:47.067Z,275.93
2019-05-20T04:18:57.548Z,265.67
2019-05-20T04:23:07.959Z,261.87
2019-05-20T04:27:18.829Z,259.95
2019-05-20T04:31:29.137Z,269.20
2019-05-20T04:35:39.421Z,265.00
2019-05-20T04:39:49.802Z,275.82
2019-05-20T04:44:02.752Z,264.30
2019-05-20T04:48:14.063Z,277.02
2019-05-20T04:52:24.445Z,282.15
2019-05-20T04:56:34.724Z,262.25
2019-05-20T05:00:50.343Z,262.68
2019-05-20T05:05:00.670Z,267.45
2019-05-20T05:09:15.461Z,266.10
2019-05-20T05:13:24.412Z,282.87
2019-05-20T05:17:35.896Z,261.10
2019-05-20T05:21:46.659Z,272.75
2019-05-20T05:25:58.115Z,270.67
2019-05-20T05:30:08.779Z,259.07
2019-05-20T05:34:19.298Z,274.35
2019-05-20T05:38:29.696Z,260.93
2019-05-20T05:42:40.008Z,266.60
2019-05-20T05:46:50.356Z,272.85
2019-05-20T05:51:00.657Z,268.07
2019-05-20T05:55:11.195Z,260.80
2019-05-20T05:59:21.539Z,255.32
2019-05-20T06:03:31.884Z,266.75
2019-05-20T06:07:42.288Z,267.50
2019-05-20T06:11:53.385Z,269.87
2019-05-20T06:16:04.046Z,269.62
2019-05-20T06:20:14.993Z,266.77
2019-05-20T06:24:25.340Z,262.20
2019-05-20T06:28:37.990Z,278.40
2019-05-20T06:32:48.350Z,268.75
2019-05-20T06:37:03.987Z,260.40
2019-05-20T06:41:15.105Z,263.80
2019-05-20T06:45:25.424Z,274.32
2019-05-20T06:49:35.903Z,267.27
2019-05-20T06:53:46.261Z,271.37
2019-05-20T06:57:56.632Z,270.77
2019-05-20T07:02:07.118Z,249.82
2019-05-20T07:06:18.429Z,265.43
2019-05-20T07:10:28.641Z,268.25
2019-05-20T07:14:38.998Z,263.32
2019-05-20T07:18:49.363Z,270.33
2019-05-20T07:23:00.173Z,263.62
2019-05-20T07:27:10.409Z,265.80
2019-05-20T07:31:20.727Z,270.25
2019-05-20T07:35:31.468Z,270.88
2019-05-20T07:39:43.589Z,272.42
2019-05-20T07:43:55.192Z,266.85
2019-05-20T07:48:06.001Z,267.50
2019-05-20T07:52:16.300Z,264.32
2019-05-20T07:56:29.577Z,270.65
2019-05-20T08:00:40.818Z,269.00
2019-05-20T08:04:52.096Z,274.62
2019-05-20T08:09:04.744Z,268.67
2019-05-20T08:13:15.095Z,259.00
2019-05-20T08:17:25.641Z,263.57
2019-05-20T08:21:35.960Z,259.67
2019-05-20T08:25:46.499Z,263.12
2019-05-20T08:29:56.833Z,262.20
2019-05-20T08:34:07.177Z,260.88
2019-05-20T08:38:18.081Z,272.40
2019-05-20T08:42:31.146Z,273.65
2019-05-20T08:46:41.500Z,264.32
2019-05-20T08:50:51.822Z,268.02
2019-05-20T08:55:02.674Z,254.80
2019-05-20T08:59:13.111Z,259.60
2019-05-20T09:03:23.535Z,263.43
2019-05-20T09:07:34.381Z,262.63
2019-05-20T09:11:47.667Z,268.52
2019-05-20T09:15:58.228Z,262.35
2019-05-20T09:20:10.161Z,266.52
2019-05-20T09:24:20.511Z,266.73
2019-05-20T09:28:30.758Z,256.38
2019-05-20T09:32:42.904Z,257.35
2019-05-20T09:36:53.678Z,263.85
2019-05-20T09:41:04.053Z,256.70
2019-05-20T09:45:14.382Z,270.10
2019-05-20T09:49:24.789Z,265.05
2019-05-20T09:53:35.190Z,257.20
2019-05-20T09:57:45.522Z,258.17
2019-05-20T10:01:56.049Z,264.12
2019-05-20T10:06:06.513Z,255.75
2019-05-20T10:10:17.011Z,261.20
2019-05-20T10:14:27.274Z,270.88
2019-05-20T10:18:39.233Z,262.90
2019-05-20T10:22:49.490Z,268.02
2019-05-20T10:26:59.955Z,256.05
2019-05-20T10:31:10.307Z,257.40
2019-05-20T10:35:22.232Z,258.98
2019-05-20T10:39:32.569Z,266.05
2019-05-20T10:43:42.959Z,260.68
2019-05-20T10:47:53.336Z,261.00
2019-05-20T10:52:03.637Z,275.65
2019-05-20T10:56:14.274Z,261.30
2019-05-20T11:00:25.061Z,270.33
2019-05-20T11:04:35.716Z,253.58
2019-05-20T11:08:46.110Z,265.27
2019-05-20T11:12:56.462Z,259.92
2019-05-20T11:17:06.929Z,263.52
2019-05-20T11:21:17.260Z,257.70
2019-05-20T11:25:27.573Z,256.27
2019-05-20T11:29:37.911Z,254.60
2019-05-20T11:33:49.504Z,257.70
2019-05-20T11:38:00.641Z,254.35
2019-05-20T11:42:11.005Z,257.67
2019-05-20T11:46:21.568Z,258.50
2019-05-20T11:50:32.785Z,271.82
2019-05-20T11:54:43.037Z,263.68
2019-05-20T11:58:53.448Z,259.92
2019-05-20T12:03:03.907Z,275.85
2019-05-20T12:07:14.350Z,257.43
2019-05-20T12:11:24.665Z,254.53
2019-05-20T12:15:34.994Z,278.52
2019-05-20T12:19:45.873Z,268.27
2019-05-20T12:23:56.378Z,256.05
2019-05-20T12:28:06.806Z,257.62
2019-05-20T12:32:18.592Z,257.92
2019-05-20T12:36:28.905Z,261.35
2019-05-20T12:40:40.864Z,263.80
2019-05-20T12:44:52.238Z,255.95
2019-05-20T12:49:02.662Z,265.10
2019-05-20T12:53:13.322Z,271.10
2019-05-20T12:57:23.501Z,272.35
2019-05-20T13:01:33.947Z,266.30
2019-05-20T13:05:44.451Z,265.57
2019-05-20T13:09:54.921Z,276.02
2019-05-20T13:14:05.244Z,270.97
2019-05-20T13:18:16.154Z,271.98
2019-05-20T13:22:26.581Z,260.02
2019-05-20T13:26:36.856Z,265.60
2019-05-20T13:30:47.439Z,267.90
2019-05-20T13:34:57.741Z,263.50
2019-05-20T13:39:08.417Z,276.27
2019-05-20T13:43:18.766Z,263.87
2019-05-20T13:47:29.065Z,265.18
2019-05-20T13:51:39.437Z,260.23
2019-05-20T13:55:51.244Z,262.20
2019-05-20T14:00:01.556Z,259.43
2019-05-20T14:04:12.818Z,268.67
2019-05-20T14:08:23.107Z,261.90
2019-05-20T14:12:34.951Z,268.50
2019-05-20T14:16:45.476Z,260.10
2019-05-20T14:20:55.786Z,258.70
2019-05-20T14:25:07.933Z,246.00
2019-05-20T14:29:18.288Z,248.60
2019-05-20T14:33:28.627Z,257.65
2019-05-20T14:37:39.363Z,254.25
2019-05-20T14:41:49.889Z,262.98
2019-05-20T14:46:00.695Z,257.12
2019-05-20T14:50:11.381Z,259.00
2019-05-20T14:54:22.258Z,243.93
2019-05-20T14:58:32.576Z,247.10
2019-05-20T15:02:42.778Z,254.10
2019-05-20T15:06:53.834Z,251.73
2019-05-20T15:11:04.215Z,258.85
2019-05-20T15:15:16.544Z,261.48
2019-05-20T15:19:26.889Z,251.22
2019-05-20T15:23:39.167Z,251.15
2019-05-20T15:27:49.960Z,247.30
2019-05-20T15:32:00.335Z,250.00
2019-05-20T15:36:10.643Z,251.10
2019-05-20T15:40:24.132Z,258.70
2019-05-20T15:44:32.865Z,257.25
2019-05-20T15:48:43.164Z,251.82
2019-05-20T15:52:53.531Z,255.30
2019-05-20T15:57:03.826Z,258.00
2019-05-20T16:01:14.145Z,253.27
2019-05-20T16:05:24.439Z,256.80
2019-05-20T16:09:34.729Z,269.57
2019-05-20T16:13:45.070Z,251.42
2019-05-20T16:17:55.466Z,260.48
2019-05-20T16:22:05.906Z,257.48
2019-05-20T16:26:18.094Z,265.07
2019-05-20T16:30:28.490Z,255.67
2019-05-20T16:34:39.835Z,248.95
2019-05-20T16:38:51.713Z,251.18
2019-05-20T16:43:02.175Z,262.82
2019-05-20T16:47:12.514Z,253.70
2019-05-20T16:51:23.377Z,249.63
2019-05-20T16:55:33.752Z,252.43
2019-05-20T16:59:44.085Z,248.97
2019-05-20T17:03:54.412Z,249.42
2019-05-20T17:08:04.628Z,257.52
2019-05-20T17:12:14.930Z,261.05
2019-05-20T17:16:25.245Z,269.10
2019-05-20T17:20:35.546Z,260.93
2019-05-20T17:24:47.053Z,258.30
2019-05-20T17:28:57.503Z,260.13
2019-05-20T17:33:07.846Z,258.67
2019-05-20T17:37:18.398Z,269.17
2019-05-20T17:41:28.857Z,263.60
2019-05-20T17:45:40.325Z,269.07
2019-05-20T17:49:50.838Z,270.57
2019-05-20T17:54:01.181Z,277.40
2019-05-20T17:58:12.599Z,270.53
2019-05-20T18:02:23.026Z,267.18
2019-05-20T18:06:33.396Z,256.40
2019-05-20T18:10:43.673Z,268.45
2019-05-20T18:14:55.538Z,257.52
2019-05-20T18:19:05.765Z,267.18
2019-05-20T18:23:16.084Z,266.20
2019-05-20T18:27:26.275Z,262.03
2019-05-20T18:31:36.611Z,265.53
2019-05-20T18:35:46.969Z,268.43
2019-05-20T18:40:12.788Z,267.10
2019-05-20T18:44:13.196Z,275.10
2019-05-20T18:48:21.879Z,279.67
2019-05-20T18:52:32.357Z,273.00
2019-05-20T18:56:42.706Z,258.13
2019-05-20T19:00:53.423Z,263.50
2019-05-20T19:05:07.087Z,265.80
2019-05-20T19:09:17.794Z,265.57
2019-05-20T19:13:28.156Z,267.13
2019-05-20T19:17:38.669Z,271.90
2019-05-20T19:21:50.091Z,278.13
2019-05-20T19:26:00.417Z,273.73
2019-05-20T19:30:11.330Z,262.77
2019-05-20T19:34:21.878Z,271.43
2019-05-20T19:38:34.926Z,270.93
2019-05-20T19:42:44.400Z,259.80
2019-05-20T19:46:54.707Z,266.10
2019-05-20T19:51:05.017Z,273.60
2019-05-20T19:55:18.621Z,271.53
2019-05-20T19:59:27.342Z,258.87
2019-05-20T20:03:37.548Z,267.40
2019-05-20T20:07:47.987Z,260.67
2019-05-20T20:11:58.641Z,266.83
2019-05-20T20:16:09.050Z,271.50
2019-05-20T20:20:19.355Z,274.77
2019-05-20T20:24:29.596Z,267.80
2019-05-20T20:28:40.814Z,270.07
2019-05-20T20:32:51.569Z,267.93
2019-05-20T20:37:01.880Z,263.73
2019-05-20T20:41:12.314Z,267.20
2019-05-20T20:45:22.738Z,273.13
2019-05-20T20:49:33.104Z,264.67
2019-05-20T20:53:43.437Z,267.40
2019-05-20T20:57:54.013Z,268.93
2019-05-20T21:02:04.565Z,273.50
2019-05-20T21:06:15.021Z,271.40
2019-05-20T21:10:26.936Z,282.07
2019-05-20T21:14:37.278Z,278.30
2019-05-20T21:18:48.715Z,280.00
2019-05-20T21:22:59.156Z,286.70
2019-05-20T21:27:09.517Z,277.40
2019-05-20T21:31:19.791Z,285.03
2019-05-20T21:35:30.201Z,289.57
2019-05-20T21:39:40.846Z,293.27
2019-05-20T21:43:51.233Z,292.17
2019-05-20T21:48:01.686Z,284.23
2019-05-20T21:52:12.070Z,289.00
2019-05-20T21:56:22.381Z,294.90
2019-05-20T22:00:37.339Z,282.57
2019-05-20T22:04:48.635Z,291.93
2019-05-20T22:08:58.959Z,296.90
2019-05-20T22:13:09.404Z,290.60
2019-05-20T22:17:19.715Z,289.87
2019-05-20T22:21:34.276Z,295.37
2019-05-20T22:25:46.748Z,284.93
2019-05-20T22:29:57.101Z,297.87
2019-05-20T22:34:07.426Z,282.23
2019-05-20T22:38:18.740Z,284.27
2019-05-20T22:42:29.107Z,271.63
2019-05-20T22:46:39.418Z,286.70
2019-05-20T22:50:51.006Z,286.33
2019-05-20T22:55:01.307Z,280.00
2019-05-20T22:59:12.132Z,280.00
2019-05-20T23:03:23.500Z,284.97
2019-05-20T23:07:33.764Z,281.63
2019-05-20T23:11:44.061Z,279.37
2019-05-20T23:15:55.774Z,293.37
2019-05-20T23:20:07.917Z,286.97
2019-05-20T23:24:18.374Z,292.20
2019-05-20T23:28:28.605Z,282.63
2019-05-20T23:32:39.341Z,271.50
2019-05-20T23:36:49.845Z,278.27
2019-05-20T23:41:01.526Z,282.57
2019-05-20T23:45:12.203Z,283.17
2019-05-20T23:49:22.534Z,274.97
2019-05-20T23:53:32.984Z,277.90
2019-05-20T23:57:43.834Z,281.13
